Portada
METAR-TAF:

METAR-TAF

Aeropuertos :

Aeropuerto de Belgrado-Nikola Tesla

Belgrado, Serbia

latitud: 44-49N, longitud: 020-17E, altitud: 96 m

Observación

El informe se hizo hace 19 minutos, a las 11:00 UTC
Viento 9 kt del oeste-noroeste, variando entre oeste-suroeste y norte-noroeste
Temperatura 15°C
Humedad 39%
Presión 1023 hPa
Visibilidad 10 km o más
sin nubes por debajo de 1500 m y sin presencia de cumulonimbus.

METAR: LYBE 081100Z 30009KT 240V340 CAVOK 15/01 Q1023 NOSIG

Hora: 13:19 (11:19 UTC)

Pronóstico

El informe se hizo hace 6 horas y 19 minutos, a las 05:00 UTC
Pronóstico válido del 08 a las 06 UTC al 09 a las 06 UTC
Viento 10 kt del oeste-noroeste
Visibilidad 10 km o más
Nubes dispersas a una altura de 3300 ft
Evolucionando progresivamente
del 08 a las 18 UTC al 08 a las 20 UTC
Viento 4 kt del noreste

TAF: LYBE 080500Z 0806/0906 30010KT 9999 SCT033 TX16/0813Z TN06/0904Z BECMG 0818/0820 04004KT

Observaciones y pronósticos meteorológicos de más de 4000 aeropuertos (mensajes METAR y TAF).

Los puntos amarillos y rojos representan las estaciones disponibles.

Ponga el ratón en el punto deseado para ver el nombre de la estación.

Haga clic para ver las observaciones y los pronósticos meteorológicos.

Para cambiar el mapa : haga clic en los botones verdes con una cruz de color negro para hacer un zoom, en el botón verde con un guión para alejar o en las flechas verdes para mapas adyacentes.


METAR-TAF: